KCLM/CLM METAR and TAF weather

Enter ICAO airport designator
Station Type Date Time Source
KCLM METAR 2019/02/23 01:53 UTC NOAA

KCLM 230153Z AUTO 27009KT 10SM CLR 04/M01 A2992 RMK AO2 SLP134 T00441011


Station Type Date Time Source
KCLM Decoded METAR 2019/02/23 01:53 UTC NOAA

PORT ANGELES FAIRCHILD INTERNATIONAL , WA, United States (KCLM) 48-07N 123-30W 85M
Feb 22, 2019 - 08:53 PM EST / 2019.02.23 0153 UTC
Wind: from the W (270 degrees) at 10 MPH (9 KT):0
Visibility: 10 mile(s):0
Sky conditions: clear
Temperature: 39.9 F (4.4 C)
Dew Point: 30.0 F (-1.1 C)
Relative Humidity: 67%
Pressure (altimeter): 29.92 in. Hg (1013 hPa)
ob: KCLM 230153Z AUTO 27009KT 10SM CLR 04/M01 A2992 RMK AO2 SLP134 T00441011
cycle: 2

Station Type Date Time Source
KCLM TAF 2019/02/22 18:51 UTC NOAA

TAF KCLM 221749Z 2218/2318 VRB05KT P6SM -RA BKN025 OVC060
FM222200 29013G20KT P6SM VCSH SCT025 BKN050
FM230300 29010KT P6SM BKN050 BKN080
FM230900 26007KT P6SM VCSH BKN035


Example: see airport list